Time;durP1;ratioP1;P1;durP2;ratioP2;P2;SDS_P1;SDS_P2;PMS_P1;PMS_P2;Temp;Humidity;BMP_temperature;BMP_pressure;BME280_temperature;BME280_humidity;BME280_pressure;Samples;Min_cycle;Max_cycle;Signal;HPM_P1;HPM_P2
2022/07/13 00:02:22;;;;;;;6.05;5.63;;;20.90;99.90;;;;;;5058265;28;20033;-48
2022/07/13 00:04:48;;;;;;;6.20;5.63;;;20.90;99.90;;;;;;5039503;28;20060;-47
2022/07/13 00:07:13;;;;;;;6.70;6.20;;;20.80;99.90;;;;;;5040686;28;20041;-48
2022/07/13 00:09:39;;;;;;;6.68;6.07;;;20.80;99.90;;;;;;5039999;28;20057;-48
2022/07/13 00:12:04;;;;;;;6.63;6.05;;;20.70;99.90;;;;;;5039671;28;20415;-47
2022/07/13 00:14:30;;;;;;;6.43;5.93;;;20.80;99.90;;;;;;5040682;28;20139;-47
2022/07/13 00:16:56;;;;;;;6.20;5.60;;;20.70;99.90;;;;;;5043656;28;20395;-48
2022/07/13 00:19:21;;;;;;;6.50;5.90;;;20.70;99.90;;;;;;5043745;28;20041;-47
2022/07/13 00:21:47;;;;;;;6.47;5.95;;;20.70;99.90;;;;;;5041685;28;20431;-47
2022/07/13 00:24:14;;;;;;;6.43;5.82;;;20.70;99.90;;;;;;5043728;28;20167;-47
2022/07/13 00:26:40;;;;;;;6.15;5.65;;;20.70;99.90;;;;;;5039097;28;20041;-48
2022/07/13 00:29:05;;;;;;;7.28;6.63;;;20.70;99.90;;;;;;5044101;28;20040;-47
2022/07/13 00:31:31;;;;;;;6.35;5.85;;;20.80;99.90;;;;;;5042760;28;20052;-47
2022/07/13 00:33:56;;;;;;;6.93;6.32;;;20.80;99.90;;;;;;5041627;28;20395;-48
2022/07/13 00:36:22;;;;;;;7.10;6.10;;;20.80;99.90;;;;;;5038960;28;20098;-46
2022/07/13 00:38:48;;;;;;;7.13;6.43;;;20.70;99.90;;;;;;5039450;28;20478;-47
2022/07/13 00:41:14;;;;;;;7.18;6.57;;;20.70;99.90;;;;;;5040118;28;20190;-47
2022/07/13 00:43:39;;;;;;;7.15;5.95;;;20.70;99.90;;;;;;5040826;28;20041;-46
2022/07/13 00:46:05;;;;;;;7.10;6.40;;;20.70;99.90;;;;;;5039834;28;20045;-48
2022/07/13 00:48:32;;;;;;;6.43;5.90;;;20.70;99.90;;;;;;5037687;28;20041;-50
2022/07/13 00:50:59;;;;;;;6.13;5.60;;;20.70;99.90;;;;;;5039126;28;20565;-47
2022/07/13 00:53:25;;;;;;;6.72;6.15;;;20.70;99.90;;;;;;5037239;28;20048;-46
2022/07/13 00:55:51;;;;;;;6.30;5.72;;;20.70;99.90;;;;;;5036334;28;20048;-46
2022/07/13 00:58:17;;;;;;;9.45;6.20;;;20.70;99.90;;;;;;5039131;28;20076;-46
2022/07/13 01:00:44;;;;;;;7.07;6.38;;;20.70;99.90;;;;;;5037558;28;20068;-47
2022/07/13 01:03:10;;;;;;;7.45;6.75;;;20.70;99.90;;;;;;5037958;28;21346;-46
2022/07/13 01:05:36;;;;;;;7.05;6.35;;;20.70;99.90;;;;;;5037154;28;20052;-47
2022/07/13 01:08:04;;;;;;;7.43;6.75;;;20.70;99.90;;;;;;5040244;28;20111;-46
2022/07/13 01:10:30;;;;;;;7.90;7.20;;;20.70;99.90;;;;;;5038712;28;20033;-46
2022/07/13 01:12:56;;;;;;;7.68;6.78;;;20.70;99.90;;;;;;5040243;28;20420;-47
2022/07/13 01:15:22;;;;;;;7.40;6.70;;;20.80;99.90;;;;;;5038429;28;20037;-47
2022/07/13 01:17:48;;;;;;;7.55;6.82;;;20.80;99.90;;;;;;5044484;28;20156;-47
2022/07/13 01:20:15;;;;;;;6.50;5.90;;;20.80;99.90;;;;;;5040006;28;20150;-46
2022/07/13 01:22:52;;;;;;;6.85;6.25;;;20.80;99.90;;;;;;5040063;28;20515;-47
2022/07/13 01:25:19;;;;;;;8.02;7.30;;;20.80;99.90;;;;;;5041399;28;20111;-48
2022/07/13 01:27:46;;;;;;;7.50;6.90;;;20.90;99.90;;;;;;5036946;28;20505;-46
2022/07/13 01:30:12;;;;;;;8.02;7.28;;;20.80;99.90;;;;;;5038600;28;20040;-46
2022/07/13 01:32:49;;;;;;;7.60;6.97;;;20.80;99.90;;;;;;5039539;28;20479;-47
2022/07/13 01:35:16;;;;;;;9.82;7.15;;;20.80;99.90;;;;;;5042957;28;20044;-47
2022/07/13 01:37:43;;;;;;;7.55;6.85;;;20.80;99.90;;;;;;5058895;28;20440;-46
2022/07/13 01:40:09;;;;;;;7.78;6.93;;;20.80;99.90;;;;;;5042787;28;20495;-48
2022/07/13 01:42:43;;;;;;;8.18;7.50;;;20.80;99.90;;;;;;5042131;28;20041;-47
2022/07/13 01:45:09;;;;;;;8.20;7.43;;;20.80;99.90;;;;;;5045137;28;20546;-46
2022/07/13 01:47:39;;;;;;;7.90;7.20;;;20.80;99.90;;;;;;5041882;28;20072;-46
2022/07/13 01:52:33;;;;;;;9.50;7.88;;;20.70;99.90;;;;;;5065886;22;20167;-70
2022/07/13 01:54:59;;;;;;;8.45;7.50;;;20.70;99.90;;;;;;5018788;28;20107;-70
2022/07/13 01:57:24;;;;;;;7.53;6.93;;;20.70;99.90;;;;;;5017551;28;20041;-70
2022/07/13 01:59:51;;;;;;;7.93;7.22;;;20.70;99.90;;;;;;5017219;28;20445;-71
2022/07/13 02:02:17;;;;;;;7.97;6.95;;;20.60;99.90;;;;;;5018291;28;20666;-70
2022/07/13 02:04:43;;;;;;;7.40;6.68;;;20.60;99.90;;;;;;5020794;28;20382;-70
2022/07/13 02:07:08;;;;;;;7.90;7.20;;;20.60;99.90;;;;;;5021382;28;20038;-69
2022/07/13 02:09:34;;;;;;;8.57;7.80;;;20.60;99.90;;;;;;5021602;28;20045;-68
2022/07/13 02:11:59;;;;;;;8.50;7.70;;;20.60;99.90;;;;;;5022692;28;20041;-69
2022/07/13 02:14:25;;;;;;;8.88;7.97;;;20.60;99.90;;;;;;5022471;28;20072;-69
2022/07/13 02:16:50;;;;;;;8.98;8.20;;;20.60;99.90;;;;;;5023466;28;20041;-69
2022/07/13 02:19:16;;;;;;;9.55;8.70;;;20.60;99.90;;;;;;5021190;28;20519;-69
2022/07/13 02:21:41;;;;;;;8.35;7.60;;;20.70;99.90;;;;;;5019890;28;20508;-68
2022/07/13 02:24:07;;;;;;;9.80;8.80;;;20.70;99.90;;;;;;5023043;28;20121;-70
2022/07/13 02:26:32;;;;;;;9.73;8.82;;;20.70;99.90;;;;;;5020435;28;20133;-69
2022/07/13 02:28:58;;;;;;;8.85;8.15;;;20.70;99.90;;;;;;5022258;28;20041;-69
2022/07/13 02:31:24;;;;;;;8.73;8.00;;;20.60;99.90;;;;;;5024530;28;21357;-68
2022/07/13 02:33:49;;;;;;;8.68;7.97;;;20.60;99.90;;;;;;5018409;28;20125;-69
2022/07/13 02:36:15;;;;;;;9.77;8.88;;;20.60;99.90;;;;;;5019481;28;20048;-68
2022/07/13 02:38:40;;;;;;;9.15;8.45;;;20.60;99.90;;;;;;5019804;28;20062;-70
2022/07/13 02:41:06;;;;;;;9.07;8.38;;;20.60;99.90;;;;;;5020905;28;20037;-69
2022/07/13 02:43:31;;;;;;;9.18;8.38;;;20.50;99.90;;;;;;5018692;28;20069;-67
2022/07/13 02:45:57;;;;;;;9.40;8.50;;;20.50;99.90;;;;;;5022574;28;20046;-71
2022/07/13 02:48:23;;;;;;;9.80;9.00;;;20.50;99.90;;;;;;5020837;28;20036;-70
2022/07/13 02:50:48;;;;;;;10.30;9.27;;;20.50;99.90;;;;;;5019742;28;20088;-71
2022/07/13 02:53:14;;;;;;;10.77;9.88;;;20.50;99.90;;;;;;5023906;28;20512;-70
2022/07/13 02:55:39;;;;;;;10.35;9.35;;;20.50;99.90;;;;;;5027775;28;20168;-69
2022/07/13 02:58:05;;;;;;;10.15;9.15;;;20.50;99.90;;;;;;5021887;28;20045;-70
2022/07/13 03:00:30;;;;;;;10.00;9.20;;;20.50;99.90;;;;;;5023663;28;20096;-71
2022/07/13 03:02:56;;;;;;;10.68;9.60;;;20.50;99.90;;;;;;5020768;28;20069;-70
2022/07/13 03:05:23;;;;;;;9.95;9.05;;;20.50;99.90;;;;;;5018842;28;20054;-71
2022/07/13 03:07:49;;;;;;;10.80;9.77;;;20.50;99.90;;;;;;5016639;28;20075;-71
2022/07/13 03:10:15;;;;;;;10.35;9.35;;;20.50;99.90;;;;;;5020715;28;20336;-70
2022/07/13 03:12:40;;;;;;;9.70;8.80;;;20.60;99.90;;;;;;5017987;28;20096;-70
2022/07/13 03:15:06;;;;;;;10.35;9.38;;;20.50;99.90;;;;;;5017792;28;20041;-70
2022/07/13 03:17:32;;;;;;;9.88;8.93;;;20.60;99.90;;;;;;5025786;28;20176;-70
2022/07/13 03:19:57;;;;;;;9.63;8.73;;;20.50;99.90;;;;;;5015371;28;20107;-70
2022/07/13 03:22:23;;;;;;;9.65;8.82;;;20.50;99.90;;;;;;5017291;28;20144;-69
2022/07/13 03:24:49;;;;;;;10.02;9.15;;;20.60;99.90;;;;;;5016323;28;20045;-70
2022/07/13 03:27:15;;;;;;;9.93;9.00;;;20.50;99.90;;;;;;5016819;28;20087;-70
2022/07/13 03:29:41;;;;;;;9.43;8.63;;;20.60;99.90;;;;;;5034682;28;20160;-69
2022/07/13 03:32:06;;;;;;;9.50;8.68;;;20.60;99.90;;;;;;5015357;28;20404;-70
2022/07/13 03:34:32;;;;;;;9.27;8.48;;;20.60;99.90;;;;;;5010456;28;20046;-70
2022/07/13 03:36:57;;;;;;;9.82;8.98;;;20.60;99.90;;;;;;5015720;28;20042;-70
2022/07/13 03:39:23;;;;;;;9.02;8.32;;;20.50;99.90;;;;;;5015182;28;20037;-70
2022/07/13 03:41:48;;;;;;;9.43;8.52;;;20.60;99.90;;;;;;5015575;28;20049;-70
2022/07/13 03:44:14;;;;;;;9.85;8.85;;;20.60;99.90;;;;;;5014023;28;20044;-71
2022/07/13 03:46:40;;;;;;;9.77;8.77;;;20.60;99.90;;;;;;5018433;28;20087;-70
2022/07/13 03:49:06;;;;;;;10.40;8.65;;;20.60;99.90;;;;;;5013302;28;20038;-70
2022/07/13 03:51:31;;;;;;;10.27;8.93;;;20.60;99.90;;;;;;5017448;28;20058;-70
2022/07/13 03:53:57;;;;;;;9.45;8.52;;;20.60;99.90;;;;;;5015439;28;20470;-70
2022/07/13 03:56:22;;;;;;;8.48;7.78;;;20.60;99.90;;;;;;5015780;28;20534;-70
2022/07/13 03:58:48;;;;;;;9.15;8.25;;;20.50;99.90;;;;;;5018971;28;20040;-70
2022/07/13 04:01:14;;;;;;;8.23;7.50;;;20.60;99.90;;;;;;5013815;28;20042;-70
2022/07/13 04:03:39;;;;;;;8.60;7.90;;;20.60;99.90;;;;;;5019628;28;20075;-68
2022/07/13 04:06:05;;;;;;;9.63;8.15;;;20.60;99.90;;;;;;5020182;28;20056;-67
2022/07/13 04:08:30;;;;;;;7.93;7.13;;;20.60;99.90;;;;;;5024260;28;20045;-68
2022/07/13 04:10:56;;;;;;;8.82;8.02;;;20.60;99.90;;;;;;5021623;28;20452;-68
2022/07/13 04:13:25;;;;;;;7.50;6.80;;;20.60;99.90;;;;;;5021931;28;20063;-68
2022/07/13 04:15:50;;;;;;;8.20;7.50;;;20.70;99.90;;;;;;5025089;28;20128;-68
2022/07/13 04:18:16;;;;;;;8.40;7.60;;;20.60;99.90;;;;;;5020207;28;20041;-69
2022/07/13 04:20:41;;;;;;;7.20;6.50;;;20.70;99.90;;;;;;5020997;28;20053;-68
2022/07/13 04:23:07;;;;;;;7.55;6.85;;;20.60;99.90;;;;;;5019928;28;20041;-68
2022/07/13 04:25:33;;;;;;;7.00;6.40;;;20.70;99.90;;;;;;5013426;28;21383;-69
2022/07/13 04:27:58;;;;;;;7.47;6.13;;;20.70;99.90;;;;;;5015314;28;20033;-68
2022/07/13 04:30:24;;;;;;;6.63;6.03;;;20.70;99.90;;;;;;5015047;28;20420;-69
2022/07/13 04:32:49;;;;;;;8.10;6.22;;;20.70;99.90;;;;;;5019939;28;20033;-69
2022/07/13 04:35:15;;;;;;;7.00;6.30;;;20.70;99.90;;;;;;5014976;28;20136;-71
2022/07/13 04:37:41;;;;;;;6.05;5.55;;;20.70;99.90;;;;;;5001048;28;20065;-70
2022/07/13 04:40:07;;;;;;;6.20;5.70;;;20.70;99.90;;;;;;5015310;28;20127;-71
2022/07/13 04:42:33;;;;;;;9.38;6.03;;;20.80;99.90;;;;;;5022997;28;20049;-70
2022/07/13 04:44:58;;;;;;;6.03;5.53;;;20.80;99.90;;;;;;5013786;28;20041;-71
2022/07/13 04:47:24;;;;;;;6.65;6.05;;;20.80;99.90;;;;;;5013864;28;20041;-71
2022/07/13 04:49:49;;;;;;;6.35;5.65;;;20.80;99.90;;;;;;5014659;28;20051;-71
2022/07/13 04:52:15;;;;;;;6.97;6.03;;;20.90;99.90;;;;;;5023144;28;20143;-72
2022/07/13 04:54:40;;;;;;;6.70;6.10;;;20.90;99.90;;;;;;5024313;28;20465;-72
2022/07/13 04:57:06;;;;;;;5.70;5.18;;;20.90;99.90;;;;;;5022126;28;20475;-72
2022/07/13 04:59:31;;;;;;;6.25;5.50;;;21.00;99.90;;;;;;5019123;28;20054;-72
2022/07/13 05:01:57;;;;;;;8.15;5.68;;;21.00;99.90;;;;;;5021299;28;20034;-72
2022/07/13 05:04:24;;;;;;;7.47;5.70;;;21.00;99.90;;;;;;5024294;28;20103;-71
2022/07/13 05:06:49;;;;;;;5.37;4.97;;;21.00;99.90;;;;;;5021735;28;20424;-71
2022/07/13 05:09:15;;;;;;;6.57;4.78;;;21.00;99.90;;;;;;5017226;28;20042;-71
2022/07/13 05:11:41;;;;;;;5.05;4.30;;;21.10;99.90;;;;;;5024322;28;20401;-70
2022/07/13 05:14:06;;;;;;;6.93;4.40;;;21.10;99.90;;;;;;5023845;28;20535;-70
2022/07/13 05:16:32;;;;;;;5.65;4.57;;;21.10;99.90;;;;;;5024455;28;20875;-70
2022/07/13 05:18:58;;;;;;;5.18;4.65;;;21.10;99.90;;;;;;5017404;28;20034;-69
2022/07/13 05:21:23;;;;;;;7.85;4.68;;;21.10;99.90;;;;;;5024730;28;20049;-69
2022/07/13 05:23:49;;;;;;;4.90;4.40;;;21.20;99.90;;;;;;5027015;28;20069;-70
2022/07/13 05:26:14;;;;;;;6.25;4.70;;;21.20;99.90;;;;;;5020519;28;20046;-70
2022/07/13 05:28:40;;;;;;;7.00;5.10;;;21.30;99.90;;;;;;5022613;28;20512;-70
2022/07/13 05:31:05;;;;;;;5.18;4.78;;;21.30;99.90;;;;;;5025474;28;20038;-70
2022/07/13 05:33:31;;;;;;;5.82;5.30;;;21.30;99.90;;;;;;5021867;28;20042;-70
2022/07/13 05:35:56;;;;;;;4.90;4.45;;;21.40;99.90;;;;;;5043364;28;20137;-70
2022/07/13 05:38:22;;;;;;;5.10;4.70;;;21.50;99.90;;;;;;5029062;28;20040;-70
2022/07/13 05:40:47;;;;;;;5.35;4.70;;;21.60;99.90;;;;;;5024410;28;20116;-70
2022/07/13 05:43:14;;;;;;;4.78;4.20;;;21.60;99.90;;;;;;5029948;28;20123;-69
2022/07/13 05:45:39;;;;;;;4.95;4.45;;;21.70;99.90;;;;;;5029604;28;20489;-69
2022/07/13 05:48:05;;;;;;;4.97;4.57;;;21.90;99.90;;;;;;5030840;28;20080;-69
2022/07/13 05:50:30;;;;;;;6.97;4.53;;;22.00;99.90;;;;;;5025966;28;20393;-71
2022/07/13 05:52:56;;;;;;;4.95;4.53;;;22.10;99.90;;;;;;5030680;28;20519;-70
2022/07/13 05:55:22;;;;;;;5.22;4.68;;;22.30;99.90;;;;;;5027714;28;20042;-70
2022/07/13 05:57:47;;;;;;;5.03;4.50;;;22.50;99.90;;;;;;5021974;28;20496;-72
2022/07/13 06:00:14;;;;;;;5.60;3.92;;;22.60;99.90;;;;;;5024113;28;20065;-72
2022/07/13 06:02:43;;;;;;;4.60;4.20;;;22.80;99.90;;;;;;5023789;28;20061;-71
2022/07/13 06:05:09;;;;;;;6.25;4.95;;;23.10;99.90;;;;;;5014810;28;20136;-70
2022/07/13 06:07:35;;;;;;;4.60;4.20;;;23.40;99.90;;;;;;5017445;28;20046;-71
2022/07/13 06:10:01;;;;;;;5.40;4.10;;;23.70;99.90;;;;;;5016024;28;20303;-70
2022/07/13 06:12:27;;;;;;;4.68;4.28;;;23.90;99.90;;;;;;5014780;28;20041;-71
2022/07/13 06:14:53;;;;;;;4.68;4.28;;;24.10;99.90;;;;;;5014292;28;20037;-70
2022/07/13 06:17:22;;;;;;;4.47;4.00;;;24.30;99.90;;;;;;5014961;28;20041;-70
2022/07/13 06:19:49;;;;;;;5.07;4.20;;;24.60;99.90;;;;;;5018767;28;20048;-71
2022/07/13 06:22:15;;;;;;;5.72;3.75;;;25.30;99.90;;;;;;5014338;28;20092;-71
2022/07/13 06:24:41;;;;;;;4.60;3.30;;;25.50;99.90;;;;;;5019694;28;20477;-71
2022/07/13 06:27:07;;;;;;;4.85;3.55;;;25.60;99.90;;;;;;4995579;28;20053;-71
2022/07/13 06:29:33;;;;;;;3.75;3.45;;;25.70;99.90;;;;;;5017336;28;20084;-71
2022/07/13 06:31:59;;;;;;;4.45;3.67;;;26.00;99.90;;;;;;5020511;28;20088;-70
2022/07/13 06:34:25;;;;;;;9.38;3.70;;;26.30;99.90;;;;;;5017914;28;20042;-71
2022/07/13 06:36:51;;;;;;;4.70;3.40;;;26.50;99.90;;;;;;5022663;28;20099;-71
2022/07/13 06:39:16;;;;;;;5.15;4.00;;;26.90;99.90;;;;;;5025188;28;20152;-71
2022/07/13 06:41:42;;;;;;;3.85;3.13;;;27.20;99.90;;;;;;5023400;28;20049;-71
2022/07/13 06:44:07;;;;;;;9.77;3.80;;;27.20;99.90;;;;;;5024178;28;21220;-71
2022/07/13 06:46:33;;;;;;;9.00;4.47;;;27.10;99.90;;;;;;5016234;28;20037;-71
2022/07/13 06:48:59;;;;;;;6.22;3.85;;;26.60;99.90;;;;;;5014721;28;20365;-71
2022/07/13 06:51:24;;;;;;;6.00;3.80;;;26.50;99.90;;;;;;5015321;28;20045;-71
2022/07/13 06:53:50;;;;;;;4.68;3.70;;;26.40;99.90;;;;;;5019536;28;20478;-70
2022/07/13 06:56:15;;;;;;;4.13;3.58;;;26.20;99.90;;;;;;5021823;28;20456;-69
2022/07/13 06:58:41;;;;;;;7.82;4.15;;;26.10;99.90;;;;;;5019995;28;20473;-66
2022/07/13 07:01:07;;;;;;;5.35;3.65;;;26.10;99.90;;;;;;5020558;28;20049;-67
2022/07/13 07:03:32;;;;;;;4.45;3.50;;;26.00;99.90;;;;;;5022341;28;20045;-67
2022/07/13 07:05:58;;;;;;;7.35;3.70;;;26.00;99.90;;;;;;5029610;28;20397;-66
2022/07/13 07:08:24;;;;;;;7.13;3.80;;;25.90;99.90;;;;;;5022841;28;20045;-66
2022/07/13 07:10:49;;;;;;;4.25;3.55;;;25.90;99.90;;;;;;5025611;28;20041;-66
2022/07/13 07:13:15;;;;;;;3.47;3.13;;;25.90;99.90;;;;;;5028634;28;20470;-65
2022/07/13 07:15:41;;;;;;;5.18;3.30;;;26.00;99.90;;;;;;5024088;28;20033;-66
2022/07/13 07:18:06;;;;;;;4.00;2.95;;;26.10;99.90;;;;;;5024345;28;20179;-65
2022/07/13 07:20:33;;;;;;;4.68;3.08;;;26.20;99.90;;;;;;5021918;28;20041;-66
2022/07/13 07:22:59;;;;;;;5.40;3.65;;;26.20;99.90;;;;;;5028803;28;20045;-69
2022/07/13 07:25:25;;;;;;;4.05;3.47;;;26.30;99.90;;;;;;5028058;28;20436;-70
2022/07/13 07:27:51;;;;;;;4.82;3.33;;;26.20;99.90;;;;;;5021506;28;20045;-65
2022/07/13 07:30:18;;;;;;;3.88;3.45;;;26.20;99.90;;;;;;5007452;28;20181;-66
2022/07/13 07:32:44;;;;;;;;;;;26.40;99.90;;;;;;5017351;28;20052;-65
2022/07/13 07:35:11;;;;;;;4.00;3.70;;;27.50;99.90;;;;;;5014644;28;19925;-66
2022/07/13 07:37:39;;;;;;;6.22;4.07;;;28.40;99.90;;;;;;5023641;28;20086;-68
2022/07/13 07:40:08;;;;;;;7.15;4.50;;;29.20;99.90;;;;;;5019854;28;20186;-65
2022/07/13 07:42:35;;;;;;;5.68;5.15;;;29.60;98.00;;;;;;5023335;28;20045;-67
2022/07/13 07:45:01;;;;;;;5.28;4.78;;;29.70;96.60;;;;;;5019884;28;20116;-66
2022/07/13 07:47:26;;;;;;;7.68;4.70;;;29.70;95.60;;;;;;5013430;28;20361;-66
2022/07/13 07:49:53;;;;;;;8.35;6.15;;;29.50;96.60;;;;;;5010770;28;20037;-69
2022/07/13 07:52:19;;;;;;;5.72;5.15;;;29.20;96.30;;;;;;5014424;28;20037;-67
2022/07/13 07:54:46;;;;;;;5.97;5.35;;;29.00;96.30;;;;;;5012765;28;20039;-66
2022/07/13 07:57:11;;;;;;;6.53;5.72;;;28.80;96.70;;;;;;5019063;28;20409;-66
2022/07/13 07:59:37;;;;;;;6.20;5.47;;;28.60;96.60;;;;;;5024375;28;20038;-66
2022/07/13 08:02:03;;;;;;;5.88;5.35;;;28.80;97.40;;;;;;5028355;28;20111;-68
2022/07/13 08:04:28;;;;;;;6.20;5.55;;;28.90;97.10;;;;;;5023032;28;20125;-67
2022/07/13 08:06:54;;;;;;;8.77;5.47;;;29.00;97.30;;;;;;5030117;28;20505;-70
2022/07/13 08:09:19;;;;;;;8.90;5.97;;;28.80;96.70;;;;;;5028945;28;20068;-66
2022/07/13 08:11:45;;;;;;;7.32;6.20;;;28.70;97.20;;;;;;5028685;28;20106;-68
2022/07/13 08:14:11;;;;;;;7.88;5.60;;;28.70;96.90;;;;;;5018296;28;20048;-67
2022/07/13 08:16:38;;;;;;;7.40;6.67;;;28.80;97.20;;;;;;5027661;28;20477;-66
2022/07/13 08:19:03;;;;;;;7.10;6.40;;;28.80;97.20;;;;;;5025751;28;20077;-67
2022/07/13 08:21:29;;;;;;;8.18;6.40;;;28.90;97.10;;;;;;5025275;28;20123;-68
2022/07/13 08:23:54;;;;;;;7.28;6.40;;;29.00;97.60;;;;;;5026246;28;20386;-66
2022/07/13 08:26:27;;;;;;;6.85;6.15;;;29.00;97.30;;;;;;5023510;28;20056;-67
2022/07/13 08:28:54;;;;;;;7.70;6.82;;;29.00;97.40;;;;;;5032197;28;20411;-66
2022/07/13 08:31:21;;;;;;;7.72;6.97;;;28.80;97.20;;;;;;5029077;28;20381;-67
2022/07/13 08:39:17;;;;;;;6.50;5.93;;;28.90;97.50;;;;;;5021840;28;20083;-67
2022/07/13 08:41:43;;;;;;;10.07;7.30;;;29.00;98.00;;;;;;5032965;28;20140;-67
2022/07/13 08:44:08;;;;;;;7.75;7.03;;;28.80;97.50;;;;;;5028774;28;20179;-67
2022/07/13 08:46:34;;;;;;;7.05;6.25;;;28.80;97.40;;;;;;5030851;28;20041;-68
2022/07/13 08:49:00;;;;;;;7.63;6.30;;;28.90;98.00;;;;;;5027225;28;20041;-66
2022/07/13 08:51:26;;;;;;;10.13;7.03;;;29.00;98.40;;;;;;5018350;28;20064;-67
2022/07/13 08:53:56;;;;;;;10.02;7.72;;;29.10;98.40;;;;;;5026992;28;20049;-67
2022/07/13 08:56:21;;;;;;;7.63;6.50;;;29.10;98.10;;;;;;5032464;28;20057;-67
2022/07/13 08:58:47;;;;;;;8.75;6.57;;;29.10;98.10;;;;;;5029690;28;20072;-67
2022/07/13 09:01:14;;;;;;;7.20;6.30;;;29.20;97.90;;;;;;5030223;28;20042;-66
2022/07/13 09:03:41;;;;;;;9.13;6.88;;;29.20;98.60;;;;;;5030316;28;20053;-67
2022/07/13 09:06:07;;;;;;;7.38;6.53;;;29.20;98.10;;;;;;5030275;28;20147;-67
2022/07/13 09:08:43;;;;;;;10.10;7.32;;;29.20;98.20;;;;;;5029859;28;20041;-67
2022/07/13 09:11:09;;;;;;;9.07;6.80;;;29.30;97.70;;;;;;5028386;28;20144;-67
2022/07/13 09:13:44;;;;;;;7.80;6.68;;;29.20;97.70;;;;;;5023191;28;20408;-65
2022/07/13 09:16:28;;;;;;;8.23;6.50;;;29.20;98.60;;;;;;5031494;28;20045;-66
2022/07/13 09:18:54;;;;;;;7.32;6.47;;;29.20;97.70;;;;;;5033168;28;20045;-65
2022/07/13 09:21:22;;;;;;;11.57;6.45;;;29.20;98.00;;;;;;5032004;28;20033;-66
2022/07/13 09:23:58;;;;;;;8.35;6.10;;;29.20;98.10;;;;;;5050479;28;20041;-66
2022/07/13 09:26:40;;;;;;;;;;;29.30;98.50;;;;;;5001616;28;20043;-66
2022/07/13 09:29:05;;;;;;;6.25;5.65;;;29.30;98.00;;;;;;5036341;28;20020;-70
2022/07/13 09:31:47;;;;;;;5.55;4.82;;;29.60;98.10;;;;;;5029589;28;20065;-68
2022/07/13 09:34:14;;;;;;;5.47;4.97;;;29.80;98.70;;;;;;5030926;28;20080;-68
2022/07/13 09:36:40;;;;;;;;;;;29.80;98.40;;;;;;5034836;28;20095;-69
2022/07/13 09:39:09;;;;;;;7.73;5.27;;;29.50;97.10;;;;;;5035434;28;19925;-68
2022/07/13 09:41:35;;;;;;;8.50;5.03;;;29.60;96.70;;;;;;5033065;28;20100;-69
2022/07/13 09:46:52;;;;;;;7.32;5.50;;;29.80;97.40;;;;;;5034778;28;20128;-66
2022/07/13 09:49:19;;;;;;;8.43;5.35;;;29.80;97.50;;;;;;5035066;28;20084;-68
2022/07/13 09:51:45;;;;;;;7.28;5.28;;;29.80;97.90;;;;;;5032142;28;20061;-67
2022/07/13 09:54:12;;;;;;;7.53;5.07;;;29.90;97.70;;;;;;5033459;28;20049;-67
2022/07/13 09:56:46;;;;;;;6.80;4.88;;;29.90;97.10;;;;;;5049011;28;20075;-68
2022/07/13 09:59:13;;;;;;;5.03;4.50;;;29.60;96.50;;;;;;5037169;28;20065;-72
2022/07/13 10:01:38;;;;;;;7.30;5.32;;;29.80;97.40;;;;;;5034378;28;20048;-73
2022/07/13 10:04:05;;;;;;;5.55;5.00;;;29.70;97.00;;;;;;5039618;28;20045;-72
2022/07/13 10:06:31;;;;;;;6.60;4.65;;;29.80;97.30;;;;;;5041034;28;20088;-72
2022/07/13 10:08:58;;;;;;;6.27;4.30;;;29.80;96.70;;;;;;5038555;28;20048;-72
2022/07/13 10:11:23;;;;;;;5.38;4.43;;;29.70;96.60;;;;;;5032286;28;20295;-73
2022/07/13 10:13:50;;;;;;;6.57;4.82;;;29.90;96.70;;;;;;5035494;28;20045;-73
2022/07/13 10:16:16;;;;;;;4.75;4.35;;;30.00;96.80;;;;;;5027248;28;20083;-74
2022/07/13 10:18:42;;;;;;;5.38;4.30;;;30.00;97.00;;;;;;5034689;28;20064;-74
2022/07/13 10:21:36;;;;;;;6.00;3.70;;;29.90;96.50;;;;;;5031528;28;20037;-74
2022/07/13 10:24:02;;;;;;;6.00;3.95;;;30.10;95.00;;;;;;5016100;28;20065;-74
2022/07/13 10:26:31;;;;;;;5.78;3.63;;;30.20;96.20;;;;;;5016491;28;20038;-73
2022/07/13 10:29:11;;;;;;;6.10;3.33;;;30.10;95.60;;;;;;5033085;28;20495;-73
2022/07/13 10:31:40;;;;;;;8.88;4.00;;;30.20;95.30;;;;;;5035207;28;20124;-73
2022/07/13 10:34:07;;;;;;;5.75;3.80;;;30.00;95.20;;;;;;5034459;28;20408;-74
2022/07/13 10:36:49;;;;;;;7.03;3.88;;;29.90;95.70;;;;;;5031690;28;20053;-73
2022/07/13 10:39:16;;;;;;;3.97;2.90;;;29.90;95.20;;;;;;5033160;28;20053;-75
2022/07/13 10:42:03;;;;;;;4.73;3.23;;;29.80;94.80;;;;;;5025952;28;20125;-74
2022/07/13 10:44:39;;;;;;;4.65;2.72;;;29.90;95.20;;;;;;5034738;28;20129;-74
2022/07/13 10:47:15;;;;;;;5.88;3.00;;;30.00;93.80;;;;;;5033000;28;20106;-75
2022/07/13 10:49:47;;;;;;;3.80;2.40;;;30.20;94.10;;;;;;5033481;28;20045;-73
2022/07/13 10:52:22;;;;;;;5.95;2.92;;;30.40;94.40;;;;;;5030191;28;20085;-74
2022/07/13 10:55:03;;;;;;;5.65;2.83;;;30.80;94.60;;;;;;5029600;28;20049;-73
2022/07/13 10:57:30;;;;;;;6.85;2.50;;;30.60;93.30;;;;;;5031494;28;20136;-73
2022/07/13 11:00:23;;;;;;;2.63;2.42;;;30.70;92.60;;;;;;5035191;28;20114;-74
2022/07/13 11:02:50;;;;;;;4.85;2.38;;;30.90;92.10;;;;;;5020302;28;20123;-70
2022/07/13 11:05:18;;;;;;;6.05;2.42;;;30.90;92.10;;;;;;5033502;28;20053;-72
2022/07/13 11:07:47;;;;;;;6.88;3.45;;;31.00;92.90;;;;;;5026050;28;20083;-72
2022/07/13 11:10:28;;;;;;;4.65;2.40;;;30.70;92.30;;;;;;5029668;28;20037;-72
2022/07/13 11:13:12;;;;;;;2.95;2.25;;;30.40;91.70;;;;;;5032954;28;20056;-71
2022/07/13 11:15:52;;;;;;;6.15;2.80;;;30.10;92.30;;;;;;5031602;28;20507;-71
2022/07/13 11:18:37;;;;;;;3.42;2.33;;;29.30;91.70;;;;;;5033893;28;21240;-71
2022/07/13 11:21:08;;;;;;;4.03;2.88;;;29.30;91.90;;;;;;5030268;28;20041;-71
2022/07/13 11:26:28;;;;;;;4.13;2.25;;;29.10;92.70;;;;;;5034153;28;20053;-71
2022/07/13 11:29:01;;;;;;;3.90;2.10;;;29.50;92.90;;;;;;5031032;28;20037;-72
2022/07/13 11:31:27;;;;;;;9.10;3.17;;;29.50;92.50;;;;;;5029648;28;20555;-72
2022/07/13 11:33:53;;;;;;;8.20;2.37;;;29.60;91.40;;;;;;5029884;28;20042;-72
2022/07/13 11:36:22;;;;;;;3.58;1.92;;;29.80;91.30;;;;;;5033372;28;20565;-72
2022/07/13 11:38:47;;;;;;;7.63;2.08;;;30.00;91.10;;;;;;5028841;28;20122;-72
2022/07/13 11:41:21;;;;;;;3.30;2.30;;;30.20;91.90;;;;;;5030953;28;20065;-72
2022/07/13 11:43:48;;;;;;;5.10;2.25;;;30.30;91.30;;;;;;5029638;28;20493;-73
2022/07/13 11:46:26;;;;;;;4.32;2.20;;;30.00;90.60;;;;;;5029621;28;20037;-72
2022/07/13 11:49:03;;;;;;;5.97;2.05;;;30.10;89.80;;;;;;5031574;28;20056;-72
2022/07/13 11:51:29;;;;;;;;;;;30.10;89.80;;;;;;5032491;28;20111;-72
2022/07/13 11:53:54;;;;;;;2.97;1.77;;;30.40;91.00;;;;;;5031792;28;20454;-72
2022/07/13 11:56:20;;;;;;;2.72;1.75;;;30.70;88.60;;;;;;5031058;28;20041;-72
2022/07/13 11:58:47;;;;;;;3.78;1.73;;;30.90;90.20;;;;;;5031446;28;20080;-73
2022/07/13 12:01:15;;;;;;;5.05;1.90;;;31.20;88.50;;;;;;5028099;28;20052;-73
2022/07/13 12:03:48;;;;;;;3.10;1.77;;;31.10;88.00;;;;;;5032027;28;20154;-72
2022/07/13 12:06:14;;;;;;;1.80;1.50;;;31.00;85.80;;;;;;5029704;28;20045;-71
2022/07/13 12:08:41;;;;;;;4.32;2.00;;;30.90;86.70;;;;;;5031040;28;20397;-70
2022/07/13 12:11:09;;;;;;;3.97;2.33;;;30.60;85.50;;;;;;5031003;28;20447;-70
2022/07/13 12:13:37;;;;;;;3.10;1.98;;;30.40;86.30;;;;;;5032675;28;20048;-71
2022/07/13 12:16:05;;;;;;;10.70;2.60;;;30.10;86.00;;;;;;5035356;28;20140;-71
2022/07/13 12:18:31;;;;;;;4.68;2.13;;;30.20;86.90;;;;;;5035707;28;20041;-72
2022/07/13 12:20:57;;;;;;;3.53;1.60;;;29.90;87.30;;;;;;5029406;28;20045;-71
2022/07/13 12:23:24;;;;;;;3.72;1.85;;;30.00;85.50;;;;;;5028849;28;20037;-65
2022/07/13 12:26:05;;;;;;;8.55;1.88;;;30.10;84.50;;;;;;5037272;28;20060;-66
2022/07/13 12:28:31;;;;;;;4.93;1.80;;;30.10;84.40;;;;;;5034268;28;20063;-66
2022/07/13 12:30:59;;;;;;;2.03;1.35;;;30.10;84.00;;;;;;5033934;28;20045;-66
2022/07/13 12:33:25;;;;;;;4.63;2.00;;;30.30;84.80;;;;;;5034463;28;20068;-65
2022/07/13 12:36:03;;;;;;;4.27;1.97;;;30.50;84.90;;;;;;5039066;28;20046;-66
2022/07/13 12:38:29;;;;;;;5.28;1.75;;;30.50;82.40;;;;;;5038391;28;20033;-65
2022/07/13 12:40:56;;;;;;;3.73;2.70;;;30.50;82.80;;;;;;5036921;28;20045;-65
2022/07/13 12:43:29;;;;;;;;;;;30.60;83.90;;;;;;5038523;28;20409;-65
2022/07/13 12:46:00;;;;;;;3.58;1.60;;;30.60;82.20;;;;;;5024994;28;20332;-66
2022/07/13 12:48:27;;;;;;;2.90;1.42;;;30.70;83.70;;;;;;5036864;28;20544;-64
2022/07/13 12:51:12;;;;;;;2.28;1.33;;;30.70;83.40;;;;;;5036693;28;20042;-66
2022/07/13 12:53:56;;;;;;;4.47;1.65;;;31.00;83.50;;;;;;5034499;28;20060;-66
2022/07/13 12:56:25;;;;;;;2.10;1.70;;;30.80;82.20;;;;;;5041989;28;20109;-67
2022/07/13 12:58:55;;;;;;;3.88;1.42;;;30.80;82.00;;;;;;5038138;28;20046;-66
2022/07/13 13:01:29;;;;;;;4.38;1.60;;;30.80;82.60;;;;;;5036147;28;20034;-66
2022/07/13 13:03:55;;;;;;;2.20;1.67;;;31.10;82.30;;;;;;5038519;28;20050;-66